AKU715 YSSY-NZAA
Flight info
| Callsign | AKU715 |
|---|---|
| Flight time | 2h 39m |
| Altitude | 39000 |
| Route | DCT EVONN L521 LUNBI ARADI7C |
| Aircraft | B77W/H-SDE1E2E3FGHIJ2J3J4J5M1RWXY/LB1D1 |
Departure
| Time | 2026-04-21 05:16 |
|---|---|
| Airport | Sydney Kingsford Smith International Airport (YSSY) |
Arrival
| Time | 2026-04-21 07:56 |
|---|---|
| Airport | Auckland International Airport (NZAA) |
| Time | Latitude | Longitude | Altitude | Speed | Heading |
|---|---|---|---|---|---|
| 2026-04-21 04:49 | -33.93924 | 151.16986 | 35 ft | 0 kts | 254° |
| 2026-04-21 05:00 | -33.93923 | 151.16987 | 35 ft | 0 kts | 254° |
| 2026-04-21 05:07 | -33.93923 | 151.16991 | 35 ft | 3 kts | 255° |
| 2026-04-21 05:07 | -33.93917 | 151.17022 | 35 ft | 4 kts | 264° |
| 2026-04-21 05:07 | -33.93913 | 151.17053 | 35 ft | 4 kts | 244° |
| 2026-04-21 05:08 | -33.93899 | 151.17078 | 31 ft | 4 kts | 213° |
| 2026-04-21 05:08 | -33.93875 | 151.17085 | 33 ft | 4 kts | 170° |
| 2026-04-21 05:08 | -33.93882 | 151.17087 | 33 ft | 3 kts | 168° |
| 2026-04-21 05:08 | -33.93885 | 151.17087 | 33 ft | 0 kts | 168° |
| 2026-04-21 05:10 | -33.93891 | 151.17089 | 35 ft | 3 kts | 168° |
| 2026-04-21 05:10 | -33.93932 | 151.17099 | 33 ft | 7 kts | 168° |
| 2026-04-21 05:11 | -33.93978 | 151.17161 | 34 ft | 13 kts | 91° |
| 2026-04-21 05:11 | -33.93905 | 151.17205 | 34 ft | 14 kts | 352° |
| 2026-04-21 05:11 | -33.93852 | 151.17190 | 34 ft | 13 kts | 351° |
| 2026-04-21 05:11 | -33.93749 | 151.17168 | 34 ft | 15 kts | 348° |
| 2026-04-21 05:12 | -33.93646 | 151.17140 | 34 ft | 15 kts | 347° |
| 2026-04-21 05:12 | -33.93543 | 151.17113 | 34 ft | 15 kts | 348° |
| 2026-04-21 05:12 | -33.93440 | 151.17087 | 34 ft | 15 kts | 348° |
| 2026-04-21 05:12 | -33.93339 | 151.17051 | 34 ft | 15 kts | 330° |
| 2026-04-21 05:13 | -33.93259 | 151.16969 | 35 ft | 15 kts | 328° |
| 2026-04-21 05:13 | -33.93157 | 151.16938 | 35 ft | 15 kts | 348° |
| 2026-04-21 05:13 | -33.93059 | 151.16912 | 35 ft | 14 kts | 349° |
| 2026-04-21 05:13 | -33.92985 | 151.16957 | 35 ft | 13 kts | 65° |
| 2026-04-21 05:14 | -33.92970 | 151.17025 | 35 ft | 0 kts | 77° |
| 2026-04-21 05:14 | -33.92970 | 151.17026 | 35 ft | 0 kts | 77° |
| 2026-04-21 05:14 | -33.92958 | 151.17104 | 35 ft | 14 kts | 91° |
| 2026-04-21 05:15 | -33.93008 | 151.17177 | 35 ft | 18 kts | 161° |
| 2026-04-21 05:15 | -33.93131 | 151.17210 | 36 ft | 29 kts | 167° |
| 2026-04-21 05:15 | -33.93496 | 151.17306 | 32 ft | 91 kts | 168° |
| 2026-04-21 05:15 | -33.94374 | 151.17534 | 37 ft | 163 kts | 168° |
| 2026-04-21 05:16 | -33.95584 | 151.17841 | 498 ft | 185 kts | 169° |
| 2026-04-21 05:16 | -33.96912 | 151.18049 | 1176 ft | 201 kts | 180° |
| 2026-04-21 05:16 | -33.98296 | 151.18007 | 2146 ft | 199 kts | 181° |
| 2026-04-21 05:16 | -33.99742 | 151.17876 | 2628 ft | 227 kts | 184° |
| 2026-04-21 05:17 | -34.01377 | 151.17684 | 3430 ft | 240 kts | 184° |
| 2026-04-21 05:17 | -34.03026 | 151.17561 | 4453 ft | 238 kts | 181° |
| 2026-04-21 05:17 | -34.04691 | 151.17460 | 5253 ft | 243 kts | 175° |
| 2026-04-21 05:17 | -34.06288 | 151.18164 | 5999 ft | 248 kts | 155° |
| 2026-04-21 05:18 | -34.07890 | 151.19002 | 6862 ft | 252 kts | 161° |
| 2026-04-21 05:18 | -34.09575 | 151.19688 | 7704 ft | 259 kts | 164° |
| 2026-04-21 05:18 | -34.11273 | 151.20437 | 8534 ft | 263 kts | 149° |
| 2026-04-21 05:18 | -34.12495 | 151.22101 | 9416 ft | 273 kts | 117° |
| 2026-04-21 05:19 | -34.13091 | 151.24304 | 10195 ft | 281 kts | 109° |
| 2026-04-21 05:19 | -34.13681 | 151.26639 | 10586 ft | 304 kts | 110° |
| 2026-04-21 05:19 | -34.14331 | 151.29197 | 10807 ft | 333 kts | 110° |
| 2026-04-21 05:19 | -34.15037 | 151.31986 | 11042 ft | 360 kts | 109° |
| 2026-04-21 05:20 | -34.15765 | 151.34880 | 11800 ft | 370 kts | 110° |
| 2026-04-21 05:20 | -34.16516 | 151.37882 | 12801 ft | 376 kts | 110° |
| 2026-04-21 05:20 | -34.17280 | 151.40931 | 13854 ft | 383 kts | 110° |
| 2026-04-21 05:20 | -34.18057 | 151.44027 | 14842 ft | 389 kts | 110° |
| 2026-04-21 05:21 | -34.18848 | 151.47179 | 15805 ft | 394 kts | 110° |
| 2026-04-21 05:21 | -34.19649 | 151.50370 | 16781 ft | 400 kts | 110° |
| 2026-04-21 05:21 | -34.20461 | 151.53604 | 17746 ft | 406 kts | 110° |
| 2026-04-21 05:21 | -34.21286 | 151.56891 | 18659 ft | 412 kts | 110° |
| 2026-04-21 05:22 | -34.22111 | 151.60180 | 19444 ft | 417 kts | 110° |
| 2026-04-21 05:22 | -34.22969 | 151.63602 | 20310 ft | 422 kts | 110° |
| 2026-04-21 05:22 | -34.23809 | 151.66962 | 21156 ft | 426 kts | 110° |
| 2026-04-21 05:22 | -34.24668 | 151.70398 | 21979 ft | 430 kts | 111° |
| 2026-04-21 05:23 | -34.25538 | 151.73880 | 22772 ft | 435 kts | 111° |
| 2026-04-21 05:23 | -34.26417 | 151.77406 | 23541 ft | 440 kts | 111° |
| 2026-04-21 05:23 | -34.27303 | 151.80963 | 24227 ft | 445 kts | 111° |
| 2026-04-21 05:23 | -34.28201 | 151.84571 | 24857 ft | 450 kts | 111° |
| 2026-04-21 05:24 | -34.29103 | 151.88205 | 25469 ft | 454 kts | 111° |
| 2026-04-21 05:24 | -34.30015 | 151.91884 | 26064 ft | 459 kts | 111° |
| 2026-04-21 05:24 | -34.30936 | 151.95605 | 26660 ft | 463 kts | 111° |
| 2026-04-21 05:24 | -34.31849 | 151.99299 | 27234 ft | 467 kts | 111° |
| 2026-04-21 05:25 | -34.32785 | 152.03090 | 27787 ft | 472 kts | 111° |
| 2026-04-21 05:25 | -34.33725 | 152.06905 | 28319 ft | 476 kts | 111° |
| 2026-04-21 05:25 | -34.34675 | 152.10765 | 28829 ft | 480 kts | 111° |
| 2026-04-21 05:25 | -34.35631 | 152.14656 | 29316 ft | 484 kts | 111° |
| 2026-04-21 05:26 | -34.36591 | 152.18570 | 29772 ft | 488 kts | 111° |
| 2026-04-21 05:26 | -34.37560 | 152.22522 | 30186 ft | 492 kts | 111° |
| 2026-04-21 05:26 | -34.38534 | 152.26509 | 30573 ft | 495 kts | 111° |
| 2026-04-21 05:26 | -34.39508 | 152.30501 | 31029 ft | 494 kts | 111° |
| 2026-04-21 05:27 | -34.40477 | 152.34485 | 31580 ft | 492 kts | 111° |
| 2026-04-21 05:27 | -34.41441 | 152.38452 | 32125 ft | 490 kts | 111° |
| 2026-04-21 05:27 | -34.42387 | 152.42348 | 32618 ft | 489 kts | 111° |
| 2026-04-21 05:27 | -34.43346 | 152.46300 | 33085 ft | 488 kts | 111° |
| 2026-04-21 05:28 | -34.44302 | 152.50248 | 33574 ft | 488 kts | 111° |
| 2026-04-21 05:28 | -34.45254 | 152.54180 | 34100 ft | 486 kts | 111° |
| 2026-04-21 05:28 | -34.46199 | 152.58096 | 34585 ft | 484 kts | 111° |
| 2026-04-21 05:28 | -34.47142 | 152.62005 | 34953 ft | 484 kts | 111° |
| 2026-04-21 05:29 | -34.48087 | 152.65925 | 35277 ft | 484 kts | 111° |
| 2026-04-21 05:29 | -34.49030 | 152.69842 | 35611 ft | 485 kts | 111° |
| 2026-04-21 05:29 | -34.49972 | 152.73765 | 35971 ft | 484 kts | 111° |
| 2026-04-21 05:29 | -34.50912 | 152.77686 | 36324 ft | 484 kts | 111° |
| 2026-04-21 05:30 | -34.51837 | 152.81547 | 36653 ft | 484 kts | 111° |
| 2026-04-21 05:30 | -34.52774 | 152.85470 | 36992 ft | 484 kts | 111° |
| 2026-04-21 05:30 | -34.53708 | 152.89384 | 37249 ft | 486 kts | 111° |
| 2026-04-21 05:30 | -34.54652 | 152.93339 | 37277 ft | 489 kts | 111° |
| 2026-04-21 05:31 | -34.56494 | 153.01092 | 37282 ft | 484 kts | 111° |
| 2026-04-21 05:31 | -34.58344 | 153.08915 | 37305 ft | 482 kts | 111° |
| 2026-04-21 05:32 | -34.60193 | 153.16739 | 37308 ft | 483 kts | 111° |
| 2026-04-21 05:32 | -34.62026 | 153.24518 | 37298 ft | 483 kts | 111° |
| 2026-04-21 05:33 | -34.63871 | 153.32375 | 37292 ft | 484 kts | 111° |
| 2026-04-21 05:33 | -34.65711 | 153.40242 | 37283 ft | 484 kts | 111° |
| 2026-04-21 05:34 | -34.67549 | 153.48123 | 37659 ft | 486 kts | 111° |
| 2026-04-21 05:34 | -34.68455 | 153.52017 | 38035 ft | 484 kts | 111° |
| 2026-04-21 05:34 | -34.69365 | 153.55942 | 38409 ft | 482 kts | 111° |
| 2026-04-21 05:35 | -34.70272 | 153.59853 | 38759 ft | 481 kts | 111° |
| 2026-04-21 05:35 | -34.71179 | 153.63771 | 39010 ft | 481 kts | 111° |
| 2026-04-21 05:35 | -34.72086 | 153.67692 | 39180 ft | 483 kts | 111° |
| 2026-04-21 05:35 | -34.72998 | 153.71635 | 39216 ft | 485 kts | 111° |
| 2026-04-21 05:36 | -34.74812 | 153.79516 | 39270 ft | 483 kts | 111° |
| 2026-04-21 05:36 | -34.76597 | 153.87304 | 39266 ft | 480 kts | 111° |
| 2026-04-21 05:37 | -34.78385 | 153.95119 | 39272 ft | 479 kts | 111° |
| 2026-04-21 05:37 | -34.80128 | 154.02761 | 39272 ft | 478 kts | 111° |
| 2026-04-21 05:38 | -34.81904 | 154.10568 | 39280 ft | 480 kts | 111° |
| 2026-04-21 05:38 | -34.83680 | 154.18403 | 39275 ft | 481 kts | 111° |
| 2026-04-21 05:39 | -34.85443 | 154.26210 | 39267 ft | 482 kts | 111° |
| 2026-04-21 05:39 | -34.87214 | 154.34079 | 39268 ft | 482 kts | 111° |
| 2026-04-21 05:40 | -34.88983 | 154.41964 | 39268 ft | 484 kts | 111° |
| 2026-04-21 05:40 | -34.90751 | 154.49874 | 39265 ft | 484 kts | 111° |
| 2026-04-21 05:41 | -34.92513 | 154.57779 | 39263 ft | 484 kts | 111° |
| 2026-04-21 05:41 | -34.94259 | 154.65641 | 39261 ft | 484 kts | 111° |
| 2026-04-21 05:42 | -34.96010 | 154.73550 | 39264 ft | 484 kts | 111° |
| 2026-04-21 05:42 | -34.97756 | 154.81467 | 39257 ft | 483 kts | 111° |
| 2026-04-21 05:43 | -34.99494 | 154.89371 | 39255 ft | 482 kts | 111° |
| 2026-04-21 05:43 | -35.01212 | 154.97206 | 39255 ft | 482 kts | 111° |
| 2026-04-21 05:44 | -35.02992 | 155.04910 | 39262 ft | 480 kts | 114° |
| 2026-04-21 05:44 | -35.05051 | 155.12645 | 39258 ft | 479 kts | 115° |
| 2026-04-21 05:45 | -35.07136 | 155.20384 | 39265 ft | 480 kts | 114° |
| 2026-04-21 05:45 | -35.09185 | 155.28152 | 39258 ft | 481 kts | 114° |
| 2026-04-21 05:46 | -35.11193 | 155.35882 | 39255 ft | 481 kts | 114° |
| 2026-04-21 05:46 | -35.13205 | 155.43675 | 39251 ft | 481 kts | 114° |
| 2026-04-21 05:47 | -35.15214 | 155.51473 | 39246 ft | 481 kts | 114° |
| 2026-04-21 05:47 | -35.17219 | 155.59273 | 39246 ft | 481 kts | 114° |
| 2026-04-21 05:48 | -35.19210 | 155.67038 | 39242 ft | 482 kts | 114° |
| 2026-04-21 05:48 | -35.21206 | 155.74848 | 39241 ft | 482 kts | 114° |
| 2026-04-21 05:49 | -35.23200 | 155.82673 | 39241 ft | 482 kts | 114° |
| 2026-04-21 05:49 | -35.25187 | 155.90495 | 39237 ft | 481 kts | 114° |
| 2026-04-21 05:50 | -35.27155 | 155.98265 | 39245 ft | 482 kts | 114° |
| 2026-04-21 05:50 | -35.29097 | 156.05953 | 39239 ft | 482 kts | 114° |
| 2026-04-21 05:51 | -35.31068 | 156.13784 | 39230 ft | 482 kts | 114° |
| 2026-04-21 05:51 | -35.33024 | 156.21577 | 39231 ft | 481 kts | 114° |
| 2026-04-21 05:52 | -35.34986 | 156.29416 | 39234 ft | 482 kts | 113° |
| 2026-04-21 05:52 | -35.36944 | 156.37260 | 39229 ft | 482 kts | 113° |
| 2026-04-21 05:53 | -35.38895 | 156.45108 | 39222 ft | 481 kts | 113° |
| 2026-04-21 05:53 | -35.40842 | 156.52962 | 39221 ft | 481 kts | 113° |
| 2026-04-21 05:54 | -35.42770 | 156.60761 | 39234 ft | 482 kts | 113° |
| 2026-04-21 05:54 | -35.44709 | 156.68630 | 39224 ft | 482 kts | 113° |
| 2026-04-21 05:55 | -35.46642 | 156.76500 | 39211 ft | 482 kts | 113° |
| 2026-04-21 05:55 | -35.48567 | 156.84361 | 39212 ft | 481 kts | 113° |
| 2026-04-21 05:56 | -35.50474 | 156.92171 | 39212 ft | 481 kts | 113° |
| 2026-04-21 05:56 | -35.52386 | 157.00027 | 39208 ft | 481 kts | 113° |
| 2026-04-21 05:57 | -35.54263 | 157.07768 | 39206 ft | 481 kts | 113° |
| 2026-04-21 05:57 | -35.56155 | 157.15590 | 39203 ft | 481 kts | 112° |
| 2026-04-21 05:58 | -35.58053 | 157.23462 | 39236 ft | 481 kts | 112° |
| 2026-04-21 05:58 | -35.59950 | 157.31355 | 39203 ft | 481 kts | 112° |
| 2026-04-21 05:59 | -35.61841 | 157.39252 | 39200 ft | 482 kts | 112° |
| 2026-04-21 06:00 | -35.64667 | 157.51095 | 39195 ft | 481 kts | 112° |
| 2026-04-21 06:00 | -35.66531 | 157.58936 | 39209 ft | 481 kts | 112° |
| 2026-04-21 06:01 | -35.68404 | 157.66844 | 39202 ft | 481 kts | 112° |
| 2026-04-21 06:01 | -35.70269 | 157.74744 | 39192 ft | 481 kts | 112° |
| 2026-04-21 06:02 | -35.72130 | 157.82654 | 39188 ft | 481 kts | 112° |
| 2026-04-21 06:02 | -35.73971 | 157.90504 | 39200 ft | 481 kts | 112° |
| 2026-04-21 06:03 | -35.75820 | 157.98408 | 39184 ft | 481 kts | 112° |
| 2026-04-21 06:03 | -35.77633 | 158.06186 | 39185 ft | 480 kts | 112° |
| 2026-04-21 06:04 | -35.79218 | 158.14199 | 39187 ft | 483 kts | 108° |
| 2026-04-21 06:04 | -35.80587 | 158.22311 | 39204 ft | 484 kts | 107° |
| 2026-04-21 06:05 | -35.81929 | 158.30372 | 39185 ft | 484 kts | 107° |
| 2026-04-21 06:05 | -35.83299 | 158.38487 | 39180 ft | 483 kts | 107° |
| 2026-04-21 06:06 | -35.84673 | 158.46584 | 39171 ft | 483 kts | 107° |
| 2026-04-21 06:06 | -35.86038 | 158.54635 | 39172 ft | 483 kts | 107° |
| 2026-04-21 06:07 | -35.87405 | 158.62738 | 39166 ft | 483 kts | 107° |
| 2026-04-21 06:07 | -35.88765 | 158.70839 | 39165 ft | 483 kts | 107° |
| 2026-04-21 06:08 | -35.90118 | 158.78941 | 39165 ft | 483 kts | 107° |
| 2026-04-21 06:08 | -35.91469 | 158.87061 | 39180 ft | 483 kts | 107° |
| 2026-04-21 06:09 | -35.92805 | 158.95126 | 39164 ft | 483 kts | 107° |
| 2026-04-21 06:09 | -35.94118 | 159.03092 | 39149 ft | 483 kts | 107° |
| 2026-04-21 06:10 | -35.95451 | 159.11216 | 39144 ft | 483 kts | 107° |
| 2026-04-21 06:10 | -35.96777 | 159.19329 | 39163 ft | 482 kts | 107° |
| 2026-04-21 06:11 | -35.97875 | 159.26072 | 39147 ft | 482 kts | 106° |
| 2026-04-21 06:11 | -35.99404 | 159.35510 | 39146 ft | 482 kts | 106° |
| 2026-04-21 06:12 | -36.00707 | 159.43597 | 39139 ft | 481 kts | 106° |
| 2026-04-21 06:12 | -36.02008 | 159.51696 | 39142 ft | 480 kts | 106° |
| 2026-04-21 06:13 | -36.03083 | 159.58420 | 39150 ft | 480 kts | 105° |
| 2026-04-21 06:13 | -36.04579 | 159.67824 | 39134 ft | 480 kts | 105° |
| 2026-04-21 06:14 | -36.05862 | 159.75920 | 39134 ft | 480 kts | 105° |
| 2026-04-21 06:14 | -36.06922 | 159.82643 | 39127 ft | 479 kts | 105° |
| 2026-04-21 06:15 | -36.08193 | 159.90736 | 39144 ft | 479 kts | 105° |
| 2026-04-21 06:15 | -36.09654 | 160.00089 | 39127 ft | 479 kts | 105° |
| 2026-04-21 06:16 | -36.10692 | 160.06762 | 39114 ft | 479 kts | 105° |
| 2026-04-21 06:16 | -36.11935 | 160.14784 | 39117 ft | 478 kts | 105° |
| 2026-04-21 06:17 | -36.13180 | 160.22865 | 39134 ft | 478 kts | 105° |
| 2026-04-21 06:17 | -36.14620 | 160.32252 | 39121 ft | 478 kts | 105° |
| 2026-04-21 06:18 | -36.15646 | 160.38968 | 39101 ft | 478 kts | 105° |
| 2026-04-21 06:18 | -36.17079 | 160.48402 | 39100 ft | 477 kts | 105° |
| 2026-04-21 06:19 | -36.18094 | 160.55111 | 39124 ft | 477 kts | 104° |
| 2026-04-21 06:19 | -36.19309 | 160.63181 | 39101 ft | 476 kts | 104° |
| 2026-04-21 06:20 | -36.20711 | 160.72541 | 39100 ft | 476 kts | 104° |
| 2026-04-21 06:20 | -36.21708 | 160.79228 | 39094 ft | 475 kts | 104° |
| 2026-04-21 06:21 | -36.22902 | 160.87274 | 39092 ft | 475 kts | 104° |
| 2026-04-21 06:21 | -36.24089 | 160.95307 | 39095 ft | 474 kts | 104° |
| 2026-04-21 06:22 | -36.25248 | 161.03192 | 39083 ft | 474 kts | 104° |
| 2026-04-21 06:22 | -36.26417 | 161.11181 | 39085 ft | 474 kts | 104° |
| 2026-04-21 06:23 | -36.27587 | 161.19219 | 39081 ft | 474 kts | 104° |
| 2026-04-21 06:23 | -36.28754 | 161.27267 | 39091 ft | 474 kts | 104° |
| 2026-04-21 06:24 | -36.29914 | 161.35316 | 39078 ft | 475 kts | 104° |
| 2026-04-21 06:24 | -36.31072 | 161.43388 | 39073 ft | 475 kts | 104° |
| 2026-04-21 06:25 | -36.32216 | 161.51404 | 39077 ft | 476 kts | 103° |
| 2026-04-21 06:25 | -36.33365 | 161.59491 | 39085 ft | 476 kts | 103° |
| 2026-04-21 06:26 | -36.34508 | 161.67579 | 39072 ft | 477 kts | 103° |
| 2026-04-21 06:26 | -36.35646 | 161.75673 | 39067 ft | 477 kts | 103° |
| 2026-04-21 06:27 | -36.36773 | 161.83730 | 39071 ft | 477 kts | 103° |
| 2026-04-21 06:27 | -36.37901 | 161.91835 | 39065 ft | 477 kts | 103° |
| 2026-04-21 06:28 | -36.39023 | 161.99943 | 39057 ft | 477 kts | 103° |
| 2026-04-21 06:28 | -36.40119 | 162.07900 | 39061 ft | 476 kts | 103° |
| 2026-04-21 06:29 | -36.41224 | 162.15957 | 39054 ft | 476 kts | 103° |
| 2026-04-21 06:29 | -36.42330 | 162.24070 | 39054 ft | 476 kts | 103° |
| 2026-04-21 06:30 | -36.43429 | 162.32178 | 39060 ft | 477 kts | 103° |
| 2026-04-21 06:30 | -36.44525 | 162.40299 | 39048 ft | 477 kts | 103° |
| 2026-04-21 06:31 | -36.45615 | 162.48425 | 39046 ft | 477 kts | 103° |
| 2026-04-21 06:31 | -36.46691 | 162.56487 | 39040 ft | 477 kts | 103° |
| 2026-04-21 06:32 | -36.47770 | 162.64616 | 39047 ft | 477 kts | 103° |
| 2026-04-21 06:32 | -36.48844 | 162.72744 | 39038 ft | 477 kts | 103° |
| 2026-04-21 06:33 | -36.49913 | 162.80884 | 39042 ft | 477 kts | 103° |
| 2026-04-21 06:33 | -36.50968 | 162.88965 | 39031 ft | 477 kts | 103° |
| 2026-04-21 06:34 | -36.52026 | 162.97106 | 39046 ft | 477 kts | 103° |
| 2026-04-21 06:34 | -36.53058 | 163.05099 | 39033 ft | 477 kts | 103° |
| 2026-04-21 06:35 | -36.54103 | 163.13254 | 39020 ft | 477 kts | 102° |
| 2026-04-21 06:35 | -36.55132 | 163.21342 | 39024 ft | 477 kts | 102° |
| 2026-04-21 06:36 | -36.56164 | 163.29486 | 39026 ft | 477 kts | 102° |
| 2026-04-21 06:36 | -36.57192 | 163.37641 | 39026 ft | 477 kts | 102° |
| 2026-04-21 06:37 | -36.58213 | 163.45793 | 39020 ft | 477 kts | 102° |
| 2026-04-21 06:37 | -36.59224 | 163.53906 | 39015 ft | 477 kts | 102° |
| 2026-04-21 06:38 | -36.60234 | 163.62061 | 39016 ft | 477 kts | 102° |
| 2026-04-21 06:38 | -36.61240 | 163.70230 | 39026 ft | 477 kts | 102° |
| 2026-04-21 06:39 | -36.62241 | 163.78402 | 39006 ft | 477 kts | 102° |
| 2026-04-21 06:39 | -36.63227 | 163.86511 | 39013 ft | 477 kts | 102° |
| 2026-04-21 06:40 | -36.64215 | 163.94673 | 39015 ft | 477 kts | 102° |
| 2026-04-21 06:40 | -36.65181 | 164.02702 | 39021 ft | 477 kts | 101° |
| 2026-04-21 06:41 | -36.66158 | 164.10869 | 39007 ft | 477 kts | 101° |
| 2026-04-21 06:41 | -36.67124 | 164.18999 | 39008 ft | 477 kts | 101° |
| 2026-04-21 06:42 | -36.68090 | 164.27173 | 39001 ft | 477 kts | 101° |
| 2026-04-21 06:42 | -36.69052 | 164.35360 | 39005 ft | 477 kts | 101° |
| 2026-04-21 06:43 | -36.70008 | 164.43549 | 39012 ft | 478 kts | 101° |
| 2026-04-21 06:43 | -36.70960 | 164.51755 | 39010 ft | 479 kts | 101° |
| 2026-04-21 06:44 | -36.71909 | 164.59987 | 39002 ft | 480 kts | 101° |
| 2026-04-21 06:44 | -36.72846 | 164.68159 | 39002 ft | 480 kts | 101° |
| 2026-04-21 06:45 | -36.73784 | 164.76394 | 39011 ft | 480 kts | 100° |
| 2026-04-21 06:45 | -36.74718 | 164.84651 | 39003 ft | 481 kts | 100° |
| 2026-04-21 06:46 | -36.75647 | 164.92915 | 39000 ft | 481 kts | 100° |
| 2026-04-21 06:46 | -36.76547 | 165.00963 | 39000 ft | 481 kts | 100° |
| 2026-04-21 06:47 | -36.77465 | 165.09236 | 39009 ft | 481 kts | 100° |
| 2026-04-21 06:47 | -36.78379 | 165.17519 | 38999 ft | 482 kts | 100° |
| 2026-04-21 06:48 | -36.79281 | 165.25750 | 38996 ft | 482 kts | 99° |
| 2026-04-21 06:48 | -36.80184 | 165.34047 | 38993 ft | 483 kts | 99° |
| 2026-04-21 06:49 | -36.81082 | 165.42343 | 38994 ft | 483 kts | 99° |
| 2026-04-21 06:49 | -36.81975 | 165.50656 | 38992 ft | 483 kts | 99° |
| 2026-04-21 06:50 | -36.82862 | 165.58971 | 38991 ft | 484 kts | 99° |
| 2026-04-21 06:50 | -36.83739 | 165.67244 | 38988 ft | 484 kts | 99° |
| 2026-04-21 06:51 | -36.84615 | 165.75562 | 38988 ft | 484 kts | 99° |
| 2026-04-21 06:51 | -36.85487 | 165.83899 | 38990 ft | 484 kts | 99° |
| 2026-04-21 06:52 | -36.86353 | 165.92240 | 38993 ft | 485 kts | 99° |
| 2026-04-21 06:52 | -36.87199 | 166.00449 | 38987 ft | 486 kts | 99° |
| 2026-04-21 06:53 | -36.88050 | 166.08759 | 38990 ft | 486 kts | 99° |
| 2026-04-21 06:53 | -36.88902 | 166.17133 | 39003 ft | 487 kts | 99° |
| 2026-04-21 06:54 | -36.89750 | 166.25537 | 38993 ft | 487 kts | 99° |
| 2026-04-21 06:54 | -36.90592 | 166.33940 | 38992 ft | 488 kts | 99° |
| 2026-04-21 06:55 | -36.91430 | 166.42359 | 38983 ft | 488 kts | 99° |
| 2026-04-21 06:55 | -36.92255 | 166.50712 | 39003 ft | 488 kts | 98° |
| 2026-04-21 06:56 | -36.93081 | 166.59136 | 38993 ft | 489 kts | 98° |
| 2026-04-21 06:56 | -36.93904 | 166.67588 | 38983 ft | 490 kts | 98° |
| 2026-04-21 06:57 | -36.94715 | 166.75982 | 38983 ft | 490 kts | 98° |
| 2026-04-21 06:57 | -36.95525 | 166.84433 | 38988 ft | 490 kts | 98° |
| 2026-04-21 06:58 | -36.96330 | 166.92896 | 38982 ft | 491 kts | 98° |
| 2026-04-21 06:58 | -36.97116 | 167.01220 | 38998 ft | 491 kts | 98° |
| 2026-04-21 06:59 | -36.97907 | 167.09661 | 38986 ft | 492 kts | 98° |
| 2026-04-21 06:59 | -36.98697 | 167.18158 | 38985 ft | 493 kts | 98° |
| 2026-04-21 07:00 | -36.99482 | 167.26674 | 38982 ft | 494 kts | 98° |
| 2026-04-21 07:00 | -37.00261 | 167.35189 | 38988 ft | 495 kts | 98° |
| 2026-04-21 07:01 | -37.01034 | 167.43700 | 38993 ft | 496 kts | 98° |
| 2026-04-21 07:01 | -37.02192 | 167.56588 | 38982 ft | 497 kts | 97° |
| 2026-04-21 07:02 | -37.02958 | 167.65196 | 38980 ft | 498 kts | 98° |
| 2026-04-21 07:02 | -37.03718 | 167.73817 | 38983 ft | 498 kts | 97° |
| 2026-04-21 07:03 | -37.04472 | 167.82441 | 38976 ft | 498 kts | 97° |
| 2026-04-21 07:03 | -37.05213 | 167.90996 | 38975 ft | 498 kts | 97° |
| 2026-04-21 07:04 | -37.05954 | 167.99615 | 38982 ft | 498 kts | 97° |
| 2026-04-21 07:04 | -37.06677 | 168.08095 | 38987 ft | 501 kts | 97° |
| 2026-04-21 07:05 | -37.07412 | 168.16791 | 38977 ft | 503 kts | 97° |
| 2026-04-21 07:05 | -37.08138 | 168.25458 | 38976 ft | 504 kts | 97° |
| 2026-04-21 07:06 | -37.08862 | 168.34191 | 38969 ft | 504 kts | 97° |
| 2026-04-21 07:06 | -37.09580 | 168.42920 | 38969 ft | 504 kts | 97° |
| 2026-04-21 07:07 | -37.10292 | 168.51647 | 38975 ft | 504 kts | 97° |
| 2026-04-21 07:07 | -37.10998 | 168.60386 | 38971 ft | 504 kts | 96° |
| 2026-04-21 07:08 | -37.11691 | 168.69056 | 38968 ft | 504 kts | 97° |
| 2026-04-21 07:08 | -37.12386 | 168.77808 | 38966 ft | 504 kts | 97° |
| 2026-04-21 07:09 | -37.13072 | 168.86556 | 38971 ft | 505 kts | 96° |
| 2026-04-21 07:09 | -37.13753 | 168.95310 | 38963 ft | 505 kts | 96° |
| 2026-04-21 07:10 | -37.14408 | 169.03825 | 38958 ft | 505 kts | 96° |
| 2026-04-21 07:10 | -37.15078 | 169.12596 | 38969 ft | 505 kts | 96° |
| 2026-04-21 07:11 | -37.15739 | 169.21361 | 38965 ft | 506 kts | 96° |
| 2026-04-21 07:11 | -37.16397 | 169.30145 | 38964 ft | 506 kts | 96° |
| 2026-04-21 07:12 | -37.17043 | 169.38870 | 38957 ft | 506 kts | 96° |
| 2026-04-21 07:12 | -37.17687 | 169.47661 | 38957 ft | 507 kts | 96° |
| 2026-04-21 07:13 | -37.18326 | 169.56468 | 38954 ft | 507 kts | 96° |
| 2026-04-21 07:13 | -37.18959 | 169.65286 | 38969 ft | 507 kts | 96° |
| 2026-04-21 07:14 | -37.19581 | 169.74049 | 38961 ft | 508 kts | 96° |
| 2026-04-21 07:14 | -37.20202 | 169.82869 | 38948 ft | 508 kts | 95° |
| 2026-04-21 07:15 | -37.20816 | 169.91700 | 38949 ft | 509 kts | 95° |
| 2026-04-21 07:15 | -37.21410 | 170.00348 | 38962 ft | 509 kts | 95° |
| 2026-04-21 07:16 | -37.22012 | 170.09196 | 38956 ft | 509 kts | 95° |
| 2026-04-21 07:16 | -37.22604 | 170.17990 | 38945 ft | 509 kts | 95° |
| 2026-04-21 07:17 | -37.23194 | 170.26850 | 38953 ft | 510 kts | 95° |
| 2026-04-21 07:17 | -37.23778 | 170.35734 | 38944 ft | 512 kts | 95° |
| 2026-04-21 07:18 | -37.24357 | 170.44640 | 38943 ft | 512 kts | 95° |
| 2026-04-21 07:18 | -37.24926 | 170.53497 | 38942 ft | 513 kts | 95° |
| 2026-04-21 07:19 | -37.25496 | 170.62450 | 38944 ft | 516 kts | 95° |
| 2026-04-21 07:19 | -37.25795 | 170.71415 | 38938 ft | 512 kts | 88° |
| 2026-04-21 07:20 | -37.25483 | 170.80283 | 38925 ft | 507 kts | 86° |
| 2026-04-21 07:20 | -37.25093 | 170.89098 | 38924 ft | 507 kts | 87° |
| 2026-04-21 07:21 | -37.24778 | 170.97987 | 38922 ft | 513 kts | 87° |
| 2026-04-21 07:21 | -37.24515 | 171.06718 | 38919 ft | 515 kts | 87° |
| 2026-04-21 07:22 | -37.24251 | 171.15676 | 38915 ft | 514 kts | 87° |
| 2026-04-21 07:22 | -37.23974 | 171.24660 | 38913 ft | 517 kts | 87° |
| 2026-04-21 07:23 | -37.23684 | 171.33699 | 38916 ft | 519 kts | 86° |
| 2026-04-21 07:23 | -37.23387 | 171.42727 | 38907 ft | 516 kts | 86° |
| 2026-04-21 07:24 | -37.23088 | 171.51639 | 38905 ft | 513 kts | 86° |
| 2026-04-21 07:24 | -37.22779 | 171.60595 | 38905 ft | 514 kts | 86° |
| 2026-04-21 07:25 | -37.22466 | 171.69507 | 38895 ft | 509 kts | 85° |
| 2026-04-21 07:25 | -37.22146 | 171.78436 | 38903 ft | 515 kts | 86° |
| 2026-04-21 07:26 | -37.21816 | 171.87400 | 38897 ft | 520 kts | 86° |
| 2026-04-21 07:26 | -37.21478 | 171.96454 | 38890 ft | 519 kts | 85° |
| 2026-04-21 07:27 | -37.21140 | 172.05323 | 38893 ft | 519 kts | 86° |
| 2026-04-21 07:27 | -37.20789 | 172.14336 | 38882 ft | 520 kts | 85° |
| 2026-04-21 07:28 | -37.20429 | 172.23404 | 38884 ft | 514 kts | 85° |
| 2026-04-21 07:28 | -37.20068 | 172.32364 | 38257 ft | 521 kts | 85° |
| 2026-04-21 07:29 | -37.19883 | 172.36843 | 37555 ft | 520 kts | 85° |
| 2026-04-21 07:29 | -37.19696 | 172.41367 | 36773 ft | 518 kts | 85° |
| 2026-04-21 07:29 | -37.19507 | 172.45872 | 35962 ft | 517 kts | 85° |
| 2026-04-21 07:29 | -37.19318 | 172.50361 | 35181 ft | 515 kts | 86° |
| 2026-04-21 07:30 | -37.19127 | 172.54840 | 34293 ft | 515 kts | 87° |
| 2026-04-21 07:30 | -37.18936 | 172.59278 | 33807 ft | 504 kts | 87° |
| 2026-04-21 07:30 | -37.18748 | 172.63619 | 33300 ft | 493 kts | 87° |
| 2026-04-21 07:30 | -37.18562 | 172.67880 | 32638 ft | 486 kts | 88° |
| 2026-04-21 07:31 | -37.18376 | 172.72097 | 31762 ft | 484 kts | 88° |
| 2026-04-21 07:31 | -37.18190 | 172.76306 | 30867 ft | 482 kts | 89° |
| 2026-04-21 07:31 | -37.18006 | 172.80427 | 30110 ft | 477 kts | 89° |
| 2026-04-21 07:31 | -37.17821 | 172.84547 | 29463 ft | 468 kts | 88° |
| 2026-04-21 07:32 | -37.17637 | 172.88591 | 28678 ft | 463 kts | 89° |
| 2026-04-21 07:32 | -37.17454 | 172.92610 | 27798 ft | 461 kts | 90° |
| 2026-04-21 07:32 | -37.17269 | 172.96610 | 27030 ft | 458 kts | 89° |
| 2026-04-21 07:32 | -37.17093 | 173.00427 | 26337 ft | 454 kts | 88° |
| 2026-04-21 07:33 | -37.16909 | 173.04360 | 25628 ft | 450 kts | 89° |
| 2026-04-21 07:33 | -37.16726 | 173.08208 | 24745 ft | 436 kts | 89° |
| 2026-04-21 07:33 | -37.16545 | 173.11968 | 23472 ft | 429 kts | 90° |
| 2026-04-21 07:33 | -37.16368 | 173.15680 | 22271 ft | 418 kts | 90° |
| 2026-04-21 07:34 | -37.16200 | 173.19138 | 21701 ft | 391 kts | 89° |
| 2026-04-21 07:34 | -37.16039 | 173.22492 | 21150 ft | 388 kts | 89° |
| 2026-04-21 07:34 | -37.15877 | 173.25937 | 20550 ft | 405 kts | 89° |
| 2026-04-21 07:34 | -37.15704 | 173.29554 | 19920 ft | 424 kts | 90° |
| 2026-04-21 07:35 | -37.15522 | 173.33262 | 19266 ft | 426 kts | 90° |
| 2026-04-21 07:35 | -37.15338 | 173.36953 | 18608 ft | 424 kts | 89° |
| 2026-04-21 07:35 | -37.15154 | 173.40630 | 17928 ft | 421 kts | 89° |
| 2026-04-21 07:35 | -37.14972 | 173.44286 | 17196 ft | 418 kts | 90° |
| 2026-04-21 07:36 | -37.14775 | 173.47891 | 16536 ft | 414 kts | 88° |
| 2026-04-21 07:36 | -37.14562 | 173.51479 | 15901 ft | 410 kts | 88° |
| 2026-04-21 07:36 | -37.14344 | 173.55021 | 15289 ft | 407 kts | 88° |
| 2026-04-21 07:36 | -37.14131 | 173.58524 | 15039 ft | 400 kts | 88° |
| 2026-04-21 07:37 | -37.13926 | 173.61964 | 14868 ft | 404 kts | 87° |
| 2026-04-21 07:37 | -37.13717 | 173.65446 | 14841 ft | 393 kts | 88° |
| 2026-04-21 07:37 | -37.13512 | 173.68782 | 14818 ft | 376 kts | 88° |
| 2026-04-21 07:37 | -37.13315 | 173.71987 | 14810 ft | 361 kts | 89° |
| 2026-04-21 07:38 | -37.13124 | 173.75124 | 14845 ft | 361 kts | 87° |
| 2026-04-21 07:38 | -37.12763 | 173.78231 | 14825 ft | 363 kts | 79° |
| 2026-04-21 07:38 | -37.12051 | 173.81265 | 14839 ft | 362 kts | 74° |
| 2026-04-21 07:38 | -37.11263 | 173.84247 | 14823 ft | 360 kts | 74° |
| 2026-04-21 07:39 | -37.10468 | 173.87217 | 14838 ft | 359 kts | 73° |
| 2026-04-21 07:39 | -37.09689 | 173.90144 | 14833 ft | 361 kts | 74° |
| 2026-04-21 07:39 | -37.08903 | 173.93126 | 14836 ft | 361 kts | 73° |
| 2026-04-21 07:39 | -37.08116 | 173.96125 | 14826 ft | 362 kts | 73° |
| 2026-04-21 07:40 | -37.07331 | 173.99127 | 14822 ft | 363 kts | 73° |
| 2026-04-21 07:40 | -37.06578 | 174.02019 | 14826 ft | 365 kts | 74° |
| 2026-04-21 07:40 | -37.05788 | 174.05057 | 14829 ft | 369 kts | 74° |
| 2026-04-21 07:40 | -37.04985 | 174.08132 | 14823 ft | 372 kts | 73° |
| 2026-04-21 07:41 | -37.04184 | 174.11190 | 14811 ft | 368 kts | 73° |
| 2026-04-21 07:41 | -37.03394 | 174.14214 | 14811 ft | 365 kts | 73° |
| 2026-04-21 07:41 | -37.02748 | 174.17269 | 14824 ft | 362 kts | 79° |
| 2026-04-21 07:41 | -37.02234 | 174.20358 | 14741 ft | 364 kts | 81° |
| 2026-04-21 07:42 | -37.01741 | 174.23505 | 14227 ft | 370 kts | 81° |
| 2026-04-21 07:42 | -37.01248 | 174.26599 | 13899 ft | 365 kts | 79° |
| 2026-04-21 07:42 | -37.00737 | 174.29705 | 13450 ft | 364 kts | 80° |
| 2026-04-21 07:42 | -37.00218 | 174.32787 | 12940 ft | 361 kts | 79° |
| 2026-04-21 07:43 | -36.99694 | 174.35856 | 12452 ft | 359 kts | 80° |
| 2026-04-21 07:43 | -36.99172 | 174.38898 | 11984 ft | 356 kts | 79° |
| 2026-04-21 07:43 | -36.98652 | 174.41912 | 11513 ft | 354 kts | 80° |
| 2026-04-21 07:43 | -36.98128 | 174.44914 | 11041 ft | 352 kts | 79° |
| 2026-04-21 07:44 | -36.97450 | 174.47836 | 10598 ft | 346 kts | 75° |
| 2026-04-21 07:44 | -36.96667 | 174.50621 | 10412 ft | 333 kts | 72° |
| 2026-04-21 07:44 | -36.95892 | 174.53290 | 10260 ft | 320 kts | 73° |
| 2026-04-21 07:44 | -36.95166 | 174.55827 | 10127 ft | 310 kts | 72° |
| 2026-04-21 07:45 | -36.94461 | 174.58327 | 9978 ft | 300 kts | 74° |
| 2026-04-21 07:45 | -36.93777 | 174.60783 | 9635 ft | 298 kts | 72° |
| 2026-04-21 07:45 | -36.93101 | 174.63225 | 9284 ft | 297 kts | 75° |
| 2026-04-21 07:45 | -36.92433 | 174.65646 | 8917 ft | 290 kts | 73° |
| 2026-04-21 07:46 | -36.91787 | 174.67991 | 8589 ft | 282 kts | 73° |
| 2026-04-21 07:46 | -36.91153 | 174.70284 | 8246 ft | 276 kts | 73° |
| 2026-04-21 07:46 | -36.90531 | 174.72536 | 7926 ft | 274 kts | 73° |
| 2026-04-21 07:46 | -36.89938 | 174.74808 | 7630 ft | 285 kts | 78° |
| 2026-04-21 07:47 | -36.89536 | 174.77273 | 7339 ft | 295 kts | 83° |
| 2026-04-21 07:47 | -36.89208 | 174.79814 | 7187 ft | 295 kts | 83° |
| 2026-04-21 07:47 | -36.88883 | 174.82336 | 6931 ft | 292 kts | 83° |
| 2026-04-21 07:47 | -36.88552 | 174.84804 | 6792 ft | 281 kts | 83° |
| 2026-04-21 07:48 | -36.88225 | 174.87155 | 6508 ft | 271 kts | 83° |
| 2026-04-21 07:48 | -36.87901 | 174.89446 | 6181 ft | 266 kts | 83° |
| 2026-04-21 07:48 | -36.87576 | 174.91711 | 5793 ft | 263 kts | 83° |
| 2026-04-21 07:48 | -36.87252 | 174.93964 | 5364 ft | 263 kts | 83° |
| 2026-04-21 07:49 | -36.86935 | 174.96156 | 5125 ft | 256 kts | 83° |
| 2026-04-21 07:49 | -36.86802 | 174.98310 | 4850 ft | 243 kts | 103° |
| 2026-04-21 07:49 | -36.87448 | 175.00092 | 4570 ft | 230 kts | 133° |
| 2026-04-21 07:49 | -36.88636 | 175.01374 | 4292 ft | 227 kts | 152° |
| 2026-04-21 07:50 | -36.90065 | 175.02149 | 4003 ft | 224 kts | 161° |
| 2026-04-21 07:50 | -36.91540 | 175.02777 | 3730 ft | 224 kts | 163° |
| 2026-04-21 07:50 | -36.93026 | 175.02985 | 3599 ft | 209 kts | 193° |
| 2026-04-21 07:50 | -36.94266 | 175.02210 | 3435 ft | 193 kts | 225° |
| 2026-04-21 07:51 | -36.94926 | 175.00849 | 3342 ft | 181 kts | 243° |
| 2026-04-21 07:51 | -36.95428 | 174.99426 | 3105 ft | 175 kts | 246° |
| 2026-04-21 07:51 | -36.95851 | 174.98019 | 2925 ft | 172 kts | 248° |
| 2026-04-21 07:51 | -36.96237 | 174.96648 | 2720 ft | 161 kts | 248° |
| 2026-04-21 07:52 | -36.96597 | 174.95346 | 2482 ft | 156 kts | 248° |
| 2026-04-21 07:52 | -36.96952 | 174.94060 | 2303 ft | 158 kts | 248° |
| 2026-04-21 07:52 | -36.97314 | 174.92752 | 2091 ft | 158 kts | 247° |
| 2026-04-21 07:52 | -36.97669 | 174.91462 | 1866 ft | 154 kts | 247° |
| 2026-04-21 07:53 | -36.98004 | 174.90243 | 1660 ft | 144 kts | 246° |
| 2026-04-21 07:53 | -36.98331 | 174.89059 | 1466 ft | 143 kts | 245° |
| 2026-04-21 07:53 | -36.98646 | 174.87917 | 1300 ft | 139 kts | 246° |
| 2026-04-21 07:53 | -36.98962 | 174.86769 | 1086 ft | 138 kts | 246° |
| 2026-04-21 07:54 | -36.99278 | 174.85628 | 901 ft | 141 kts | 246° |
| 2026-04-21 07:54 | -36.99605 | 174.84453 | 695 ft | 145 kts | 249° |
| 2026-04-21 07:54 | -36.99923 | 174.83267 | 516 ft | 144 kts | 247° |
| 2026-04-21 07:54 | -37.00261 | 174.82085 | 360 ft | 146 kts | 249° |
| 2026-04-21 07:55 | -37.00579 | 174.80899 | 141 ft | 143 kts | 248° |
| 2026-04-21 07:55 | -37.00896 | 174.79735 | 31 ft | 135 kts | 247° |
| 2026-04-21 07:55 | -37.01164 | 174.78775 | 30 ft | 101 kts | 251° |
| 2026-04-21 07:55 | -37.01351 | 174.78092 | 31 ft | 65 kts | 251° |
| 2026-04-21 07:56 | -37.01371 | 174.77818 | 31 ft | 20 kts | 327° |
| 2026-04-21 07:56 | -37.01288 | 174.77777 | 30 ft | 3 kts | 341° |
| 2026-04-21 07:56 | -37.01282 | 174.77776 | 30 ft | 4 kts | 349° |
| 2026-04-21 07:56 | -37.01232 | 174.77833 | 30 ft | 17 kts | 69° |
| 2026-04-21 07:57 | -37.01183 | 174.78009 | 30 ft | 28 kts | 71° |
| 2026-04-21 07:57 | -37.01120 | 174.78233 | 30 ft | 26 kts | 71° |
| 2026-04-21 07:57 | -37.01051 | 174.78365 | 30 ft | 17 kts | 24° |
| 2026-04-21 07:57 | -37.00943 | 174.78360 | 30 ft | 14 kts | 349° |
| 2026-04-21 07:58 | -37.00866 | 174.78311 | 30 ft | 7 kts | 325° |
| 2026-04-21 07:58 | -37.00844 | 174.78292 | 30 ft | 1 kts | 324° |
| 2026-04-21 07:58 | -37.00835 | 174.78284 | 30 ft | 1 kts | 324° |
| 2026-04-21 07:58 | -37.00833 | 174.78282 | 30 ft | 0 kts | 324° |